createdAt,value
2019-03-01T00:00:18.075Z,10.70
2019-03-01T00:02:48.677Z,10.80
2019-03-01T00:06:12.609Z,10.70
2019-03-01T00:09:54.991Z,10.70
2019-03-01T00:13:22.567Z,10.70
2019-03-01T00:16:56.474Z,10.70
2019-03-01T00:20:35.887Z,10.70
2019-03-01T00:23:42.089Z,10.70
2019-03-01T00:27:08.137Z,10.60
2019-03-01T00:30:21.840Z,10.60
2019-03-01T00:33:25.670Z,10.60
2019-03-01T00:36:50.478Z,10.60
2019-03-01T00:40:06.528Z,10.60
2019-03-01T00:43:20.163Z,10.60
2019-03-01T00:45:50.721Z,10.60
2019-03-01T00:48:21.243Z,10.60
2019-03-01T00:50:51.783Z,10.60
2019-03-01T00:53:22.397Z,10.60
2019-03-01T00:55:52.947Z,10.60
2019-03-01T00:58:23.553Z,10.60
2019-03-01T01:00:54.045Z,10.60
2019-03-01T01:03:24.656Z,10.60
2019-03-01T01:05:55.262Z,10.60
2019-03-01T01:08:25.845Z,10.60
2019-03-01T01:10:56.358Z,10.60
2019-03-01T01:13:26.852Z,10.60
2019-03-01T01:15:57.486Z,10.60
2019-03-01T01:18:28.006Z,10.50
2019-03-01T01:20:58.598Z,10.50
2019-03-01T01:23:29.174Z,10.50
2019-03-01T01:25:59.629Z,10.50
2019-03-01T01:28:30.122Z,10.50
2019-03-01T01:31:00.637Z,10.50
2019-03-01T01:33:31.123Z,10.50
2019-03-01T01:36:01.665Z,10.50
2019-03-01T01:38:32.157Z,10.50
2019-03-01T01:41:02.709Z,10.50
2019-03-01T01:43:33.212Z,10.50
2019-03-01T01:46:03.671Z,10.50
2019-03-01T01:48:34.228Z,10.50
2019-03-01T01:51:04.707Z,10.50
2019-03-01T01:53:35.384Z,10.50
2019-03-01T01:56:06.039Z,10.50
2019-03-01T01:58:36.505Z,10.50
2019-03-01T02:01:07.210Z,10.50
2019-03-01T02:03:37.793Z,10.50
2019-03-01T02:06:08.304Z,10.50
2019-03-01T02:08:38.880Z,10.50
2019-03-01T02:11:09.413Z,10.50
2019-03-01T02:13:40.000Z,10.50
2019-03-01T02:16:10.536Z,10.50
2019-03-01T02:18:41.122Z,10.50
2019-03-01T02:21:11.833Z,10.50
2019-03-01T02:23:42.323Z,10.50
2019-03-01T02:26:12.797Z,10.40
2019-03-01T02:28:43.373Z,10.40
2019-03-01T02:31:14.413Z,10.40
2019-03-01T02:33:44.940Z,10.40
2019-03-01T02:36:15.546Z,10.40
2019-03-01T02:38:46.246Z,10.30
2019-03-01T02:41:16.725Z,10.40
2019-03-01T02:43:47.217Z,10.30
2019-03-01T02:46:17.750Z,10.30
2019-03-01T02:48:48.328Z,10.30
2019-03-01T02:51:18.812Z,10.30
2019-03-01T02:53:49.350Z,10.30
2019-03-01T02:56:20.115Z,10.30
2019-03-01T02:58:50.688Z,10.30
2019-03-01T03:01:21.242Z,10.30
2019-03-01T03:03:51.871Z,10.20
2019-03-01T03:06:44.348Z,10.30
2019-03-01T03:09:14.921Z,10.20
2019-03-01T03:11:45.411Z,10.20
2019-03-01T03:14:15.942Z,10.20
2019-03-01T03:16:46.448Z,10.20
2019-03-01T03:19:16.966Z,10.20
2019-03-01T03:21:47.539Z,10.20
2019-03-01T03:24:18.100Z,10.20
2019-03-01T03:26:48.784Z,10.20
2019-03-01T03:29:19.302Z,10.10
2019-03-01T03:31:49.954Z,10.20
2019-03-01T03:34:20.467Z,10.10
2019-03-01T03:36:51.136Z,10.10
2019-03-01T03:39:21.646Z,10.20
2019-03-01T03:41:52.201Z,10.20
2019-03-01T03:44:22.724Z,10.20
2019-03-01T03:46:53.292Z,10.10
2019-03-01T03:49:23.852Z,10.20
2019-03-01T03:51:54.317Z,10.20
2019-03-01T03:54:24.953Z,10.20
2019-03-01T03:56:55.428Z,10.20
2019-03-01T03:59:25.984Z,10.20
2019-03-01T04:01:56.564Z,10.20
2019-03-01T04:04:27.054Z,10.20
2019-03-01T04:06:57.535Z,10.20
2019-03-01T04:09:28.167Z,10.20
2019-03-01T04:11:58.737Z,10.20
2019-03-01T04:14:29.212Z,10.20
2019-03-01T04:16:59.723Z,10.20
2019-03-01T04:19:30.259Z,10.20
2019-03-01T04:22:00.757Z,10.20
2019-03-01T04:24:31.257Z,10.20
2019-03-01T04:27:01.807Z,10.20
2019-03-01T04:29:32.325Z,10.20
2019-03-01T04:32:04.073Z,10.20
2019-03-01T04:34:34.630Z,10.20
2019-03-01T04:37:05.150Z,10.20
2019-03-01T04:39:35.616Z,10.20
2019-03-01T04:42:06.247Z,10.20
2019-03-01T04:44:36.755Z,10.20
2019-03-01T04:47:07.260Z,10.20
2019-03-01T04:49:37.881Z,10.20
2019-03-01T04:52:36.966Z,10.20
2019-03-01T04:55:20.128Z,10.20
2019-03-01T04:57:50.701Z,10.20
2019-03-01T05:00:23.200Z,10.20
2019-03-01T05:02:53.809Z,10.20
2019-03-01T05:05:24.327Z,10.10
2019-03-01T05:07:54.947Z,10.10
2019-03-01T05:10:25.452Z,10.10
2019-03-01T05:12:56.115Z,10.10
2019-03-01T05:15:26.915Z,10.10
2019-03-01T05:17:57.429Z,10.10
2019-03-01T05:20:29.542Z,10.10
2019-03-01T05:23:00.157Z,10.00
2019-03-01T05:25:30.872Z,10.00
2019-03-01T05:28:01.494Z,10.00
2019-03-01T05:30:34.856Z,10.00
2019-03-01T05:33:05.325Z,10.00
2019-03-01T05:35:35.938Z,10.00
2019-03-01T05:38:06.466Z,10.00
2019-03-01T05:40:36.950Z,10.00
2019-03-01T05:43:07.555Z,10.00
2019-03-01T05:45:38.061Z,10.00
2019-03-01T05:48:08.516Z,10.00
2019-03-01T05:50:39.147Z,10.00
2019-03-01T05:53:09.667Z,10.00
2019-03-01T05:55:40.220Z,9.90
2019-03-01T05:58:42.004Z,10.00
2019-03-01T06:01:34.866Z,9.90
2019-03-01T06:04:29.967Z,10.00
2019-03-01T06:07:52.660Z,9.90
2019-03-01T06:10:59.749Z,10.00
2019-03-01T06:14:32.566Z,10.00
2019-03-01T06:18:04.044Z,9.90
2019-03-01T06:21:30.965Z,9.90
2019-03-01T06:24:47.256Z,10.00
2019-03-01T06:28:00.450Z,9.90
2019-03-01T06:31:22.901Z,10.00
2019-03-01T06:34:40.995Z,9.90
2019-03-01T06:38:32.504Z,10.00
2019-03-01T06:41:50.072Z,9.90
2019-03-01T06:45:26.118Z,9.90
2019-03-01T06:47:56.640Z,9.90
2019-03-01T06:50:46.244Z,9.90
2019-03-01T06:53:16.751Z,9.90
2019-03-01T06:56:02.295Z,9.90
2019-03-01T06:58:39.611Z,9.90
2019-03-01T07:01:16.501Z,9.90
2019-03-01T07:03:52.023Z,9.90
2019-03-01T07:06:22.610Z,9.90
2019-03-01T07:08:53.210Z,9.90
2019-03-01T07:11:23.852Z,9.90
2019-03-01T07:13:54.440Z,9.90
2019-03-01T07:16:24.972Z,9.90
2019-03-01T07:18:55.709Z,9.90
2019-03-01T07:21:26.382Z,9.90
2019-03-01T07:23:56.998Z,9.90
2019-03-01T07:26:27.531Z,9.90
2019-03-01T07:28:58.064Z,9.90
2019-03-01T07:31:28.638Z,9.90
2019-03-01T07:33:59.258Z,9.90
2019-03-01T07:36:29.732Z,9.90
2019-03-01T07:39:00.271Z,9.80
2019-03-01T07:41:30.875Z,9.80
2019-03-01T07:44:01.814Z,9.80
2019-03-01T07:46:32.389Z,9.80
2019-03-01T07:49:02.926Z,9.80
2019-03-01T07:51:35.799Z,9.80
2019-03-01T07:54:05.752Z,9.80
2019-03-01T07:56:37.001Z,9.80
2019-03-01T07:59:08.579Z,9.70
2019-03-01T08:01:39.197Z,9.80
2019-03-01T08:04:09.750Z,9.80
2019-03-01T08:06:40.368Z,9.70
2019-03-01T08:09:13.976Z,9.70
2019-03-01T08:11:44.528Z,9.70
2019-03-01T08:14:15.000Z,9.70
2019-03-01T08:16:45.508Z,9.70
2019-03-01T08:19:22.308Z,9.60
2019-03-01T08:21:49.872Z,9.60
2019-03-01T08:24:20.438Z,9.60
2019-03-01T08:26:51.084Z,9.60
2019-03-01T08:29:21.635Z,9.60
2019-03-01T08:31:52.722Z,9.60
2019-03-01T08:34:24.438Z,9.60
2019-03-01T08:36:55.015Z,9.60
2019-03-01T08:39:25.747Z,9.60
2019-03-01T08:42:00.168Z,9.60
2019-03-01T08:44:28.710Z,9.60
2019-03-01T08:46:59.243Z,9.60
2019-03-01T08:49:29.831Z,9.60
2019-03-01T08:52:01.497Z,9.60
2019-03-01T08:54:32.843Z,9.60
2019-03-01T08:57:03.404Z,9.60
2019-03-01T08:59:34.054Z,9.60
2019-03-01T09:02:04.601Z,9.60
2019-03-01T09:04:37.970Z,9.60
2019-03-01T09:07:07.471Z,9.60
2019-03-01T09:09:38.023Z,9.60
2019-03-01T09:12:08.575Z,9.60
2019-03-01T09:14:39.127Z,9.60
2019-03-01T09:17:09.618Z,9.60
2019-03-01T09:19:40.205Z,9.60
2019-03-01T09:22:10.673Z,9.60
2019-03-01T09:24:41.222Z,9.60
2019-03-01T09:27:11.798Z,9.50
2019-03-01T09:29:42.371Z,9.50
2019-03-01T09:32:12.833Z,9.50
2019-03-01T09:34:44.140Z,9.50
2019-03-01T09:37:14.732Z,9.50
2019-03-01T09:39:45.288Z,9.50
2019-03-01T09:42:16.359Z,9.40
2019-03-01T09:44:46.945Z,9.40
2019-03-01T09:47:17.487Z,9.40
2019-03-01T09:49:48.017Z,9.40
2019-03-01T09:52:20.393Z,9.50
2019-03-01T09:54:50.757Z,9.40
2019-03-01T09:57:21.281Z,9.40
2019-03-01T09:59:52.045Z,9.40
2019-03-01T10:02:22.603Z,9.40
2019-03-01T10:04:53.237Z,9.40
2019-03-01T10:07:23.802Z,9.40
2019-03-01T10:09:54.351Z,9.40
2019-03-01T10:12:26.456Z,9.40
2019-03-01T10:14:57.108Z,9.40
2019-03-01T10:17:27.666Z,9.40
2019-03-01T10:19:58.142Z,9.40
2019-03-01T10:22:28.623Z,9.40
2019-03-01T10:24:59.105Z,9.40
2019-03-01T10:27:29.577Z,9.40
2019-03-01T10:30:00.258Z,9.40
2019-03-01T10:32:30.819Z,9.40
2019-03-01T10:35:01.326Z,9.40
2019-03-01T10:37:31.874Z,9.40
2019-03-01T10:40:02.370Z,9.30
2019-03-01T10:42:33.201Z,9.30
2019-03-01T10:45:03.743Z,9.30
2019-03-01T10:47:34.252Z,9.30
2019-03-01T10:50:05.225Z,9.20
2019-03-01T10:52:35.740Z,9.20
2019-03-01T10:55:07.704Z,9.20
2019-03-01T10:57:38.264Z,9.20
2019-03-01T11:00:20.742Z,9.20
2019-03-01T11:02:51.384Z,9.20
2019-03-01T11:05:22.010Z,9.20
2019-03-01T11:07:53.058Z,9.10
2019-03-01T11:10:27.506Z,9.10
2019-03-01T11:12:58.002Z,9.10
2019-03-01T11:15:28.606Z,9.00
2019-03-01T11:17:59.087Z,9.00
2019-03-01T11:20:29.548Z,9.00
2019-03-01T11:23:00.045Z,8.90
2019-03-01T11:25:30.491Z,8.90
2019-03-01T11:28:01.004Z,8.90
2019-03-01T11:30:32.078Z,8.80
2019-03-01T11:33:02.533Z,8.80
2019-03-01T11:35:33.070Z,8.70
2019-03-01T11:38:03.625Z,8.70
2019-03-01T11:40:34.593Z,8.60
2019-03-01T11:43:05.533Z,8.60
2019-03-01T11:45:36.319Z,8.50
2019-03-01T11:48:07.127Z,8.50
2019-03-01T11:50:37.573Z,8.50
2019-03-01T11:53:08.023Z,8.50
2019-03-01T11:55:38.566Z,8.40
2019-03-01T11:58:09.014Z,8.30
2019-03-01T12:00:39.464Z,8.30
2019-03-01T12:03:09.971Z,8.30
2019-03-01T12:05:40.534Z,8.20
2019-03-01T12:08:11.037Z,8.20
2019-03-01T12:10:41.536Z,8.20
2019-03-01T12:13:12.014Z,8.20
2019-03-01T12:15:42.460Z,8.10
2019-03-01T12:18:12.923Z,8.10
2019-03-01T12:20:43.434Z,8.10
2019-03-01T12:23:13.865Z,8.00
2019-03-01T12:25:44.350Z,8.00
2019-03-01T12:28:14.824Z,8.00
2019-03-01T12:30:45.334Z,7.90
2019-03-01T12:33:15.803Z,7.90
2019-03-01T12:35:46.254Z,7.80
2019-03-01T12:38:16.860Z,7.80
2019-03-01T12:40:47.298Z,7.70
2019-03-01T12:43:17.754Z,7.70
2019-03-01T12:45:48.262Z,7.60
2019-03-01T12:48:18.745Z,7.60
2019-03-01T12:50:49.196Z,7.60
2019-03-01T12:53:19.708Z,7.60
2019-03-01T12:55:50.141Z,7.50
2019-03-01T12:58:20.612Z,7.50
2019-03-01T13:00:51.111Z,7.50
2019-03-01T13:03:21.595Z,7.50
2019-03-01T13:05:52.300Z,7.50
2019-03-01T13:08:22.742Z,7.50
2019-03-01T13:10:53.246Z,7.50
2019-03-01T13:13:23.835Z,7.50
2019-03-01T13:15:54.270Z,7.50
2019-03-01T13:18:24.911Z,7.50
2019-03-01T13:20:55.497Z,7.50
2019-03-01T13:23:25.928Z,7.50
2019-03-01T13:25:56.466Z,7.50
2019-03-01T13:28:26.935Z,7.50
2019-03-01T13:30:57.542Z,7.50
2019-03-01T13:33:28.043Z,7.50
2019-03-01T13:35:59.925Z,7.50
2019-03-01T13:38:34.044Z,7.50
2019-03-01T13:41:03.051Z,7.50
2019-03-01T13:43:33.480Z,7.50
2019-03-01T13:46:03.959Z,7.40
2019-03-01T13:48:34.436Z,7.40
2019-03-01T13:51:04.929Z,7.40
2019-03-01T13:53:35.356Z,7.40
2019-03-01T13:56:05.825Z,7.40
2019-03-01T13:58:36.275Z,7.40
2019-03-01T14:01:07.550Z,7.40
2019-03-01T14:03:38.018Z,7.50
2019-03-01T14:06:08.479Z,7.50
2019-03-01T14:08:38.910Z,7.50
2019-03-01T14:11:09.414Z,7.50
2019-03-01T14:13:39.867Z,7.50
2019-03-01T14:16:10.331Z,7.40
2019-03-01T14:18:40.783Z,7.40
2019-03-01T14:21:11.257Z,7.40
2019-03-01T14:23:41.746Z,7.40
2019-03-01T14:26:15.208Z,7.40
2019-03-01T14:28:44.415Z,7.40
2019-03-01T14:31:14.869Z,7.40
2019-03-01T14:33:45.312Z,7.30
2019-03-01T14:36:15.783Z,7.30
2019-03-01T14:38:46.249Z,7.30
2019-03-01T14:41:16.746Z,7.30
2019-03-01T14:43:47.968Z,7.30
2019-03-01T14:46:20.896Z,7.30
2019-03-01T14:48:50.703Z,7.20
2019-03-01T14:51:21.162Z,7.20
2019-03-01T14:53:51.639Z,7.20
2019-03-01T14:56:34.702Z,7.30
2019-03-01T14:59:35.142Z,7.20
2019-03-01T15:03:23.982Z,7.20
2019-03-01T15:05:54.440Z,7.20
2019-03-01T15:08:24.954Z,7.20
2019-03-01T15:10:55.632Z,7.20
2019-03-01T15:13:27.875Z,7.20
2019-03-01T15:16:01.110Z,7.20
2019-03-01T15:18:32.386Z,7.20
2019-03-01T15:21:03.042Z,7.20
2019-03-01T15:23:33.857Z,7.20
2019-03-01T15:26:04.666Z,7.20
2019-03-01T15:28:44.753Z,7.10
2019-03-01T15:31:15.219Z,7.20
2019-03-01T15:33:47.059Z,7.10
2019-03-01T15:36:19.177Z,7.10
2019-03-01T15:38:49.903Z,7.10
2019-03-01T15:41:20.525Z,7.10
2019-03-01T15:43:51.016Z,7.10
2019-03-01T15:46:21.511Z,7.10
2019-03-01T15:48:52.081Z,7.00
2019-03-01T15:51:22.556Z,7.00
2019-03-01T15:53:53.064Z,7.00
2019-03-01T15:56:25.743Z,7.00
2019-03-01T15:58:56.431Z,7.00
2019-03-01T16:01:26.908Z,7.00
2019-03-01T16:03:58.041Z,7.00
2019-03-01T16:06:28.605Z,7.00
2019-03-01T16:08:59.062Z,7.00
2019-03-01T16:11:31.012Z,7.00
2019-03-01T16:14:01.625Z,7.00
2019-03-01T16:16:32.081Z,6.90
2019-03-01T16:19:03.698Z,6.90
2019-03-01T16:21:34.133Z,6.80
2019-03-01T16:24:05.061Z,6.80
2019-03-01T16:26:37.333Z,6.70
2019-03-01T16:29:08.102Z,6.70
2019-03-01T16:31:38.605Z,6.70
2019-03-01T16:34:09.117Z,6.70
2019-03-01T16:36:45.883Z,6.70
2019-03-01T16:39:16.584Z,6.60
2019-03-01T16:41:47.076Z,6.60
2019-03-01T16:44:17.591Z,6.60
2019-03-01T16:46:48.056Z,6.60
2019-03-01T16:49:18.502Z,6.60
2019-03-01T16:51:50.700Z,6.60
2019-03-01T16:54:21.263Z,6.50
2019-03-01T16:56:51.873Z,6.50
2019-03-01T16:59:22.420Z,6.50
2019-03-01T17:01:53.071Z,6.50
2019-03-01T17:04:27.451Z,6.60
2019-03-01T17:06:58.258Z,6.60
2019-03-01T17:09:28.796Z,6.60
2019-03-01T17:11:59.258Z,6.60
2019-03-01T17:14:29.832Z,6.60
2019-03-01T17:17:00.734Z,6.60
2019-03-01T17:19:31.244Z,6.60
2019-03-01T17:22:04.465Z,6.60
2019-03-01T17:24:34.969Z,6.60
2019-03-01T17:27:06.636Z,6.60
2019-03-01T17:29:39.248Z,6.60
2019-03-01T17:32:09.477Z,6.60
2019-03-01T17:34:39.938Z,6.60
2019-03-01T17:37:10.507Z,6.60
2019-03-01T17:39:41.012Z,6.60
2019-03-01T17:42:11.601Z,6.60
2019-03-01T17:44:44.550Z,6.60
2019-03-01T17:47:16.077Z,6.60
2019-03-01T17:49:46.772Z,6.60
2019-03-01T17:52:17.307Z,6.60
2019-03-01T17:54:47.814Z,6.60
2019-03-01T17:57:20.071Z,6.60
2019-03-01T17:59:50.596Z,6.60
2019-03-01T18:02:21.103Z,6.60
2019-03-01T18:04:51.735Z,6.60
2019-03-01T18:07:23.711Z,6.60
2019-03-01T18:09:56.623Z,6.60
2019-03-01T18:12:27.235Z,6.60
2019-03-01T18:14:57.893Z,6.60
2019-03-01T18:17:28.428Z,6.60
2019-03-01T18:20:01.558Z,6.60
2019-03-01T18:22:31.092Z,6.60
2019-03-01T18:25:01.601Z,6.60
2019-03-01T18:27:32.162Z,6.60
2019-03-01T18:30:03.895Z,6.50
2019-03-01T18:32:34.384Z,6.50
2019-03-01T18:35:08.020Z,6.50
2019-03-01T18:37:38.687Z,6.50
2019-03-01T18:40:13.469Z,6.50
2019-03-01T18:42:42.497Z,6.40
2019-03-01T18:45:15.770Z,6.40
2019-03-01T18:47:46.257Z,6.40
2019-03-01T18:50:20.972Z,6.40
2019-03-01T18:52:53.171Z,6.40
2019-03-01T18:55:24.850Z,6.30
2019-03-01T18:57:56.435Z,6.30
2019-03-01T19:00:35.782Z,6.40
2019-03-01T19:03:05.761Z,6.30
2019-03-01T19:05:40.326Z,6.30
2019-03-01T19:08:09.087Z,6.30
2019-03-01T19:10:39.708Z,6.30
2019-03-01T19:13:10.155Z,6.30
2019-03-01T19:15:40.729Z,6.30
2019-03-01T19:18:13.581Z,6.40
2019-03-01T19:20:43.374Z,6.30
2019-03-01T19:23:13.910Z,6.40
2019-03-01T19:25:44.366Z,6.40
2019-03-01T19:28:14.895Z,6.40
2019-03-01T19:30:45.835Z,6.40
2019-03-01T19:33:17.626Z,6.40
2019-03-01T19:35:48.561Z,6.40
2019-03-01T19:38:21.845Z,6.40
2019-03-01T19:40:51.427Z,6.40
2019-03-01T19:43:22.024Z,6.40
2019-03-01T19:45:52.591Z,6.40
2019-03-01T19:48:23.396Z,6.40
2019-03-01T19:50:53.920Z,6.40
2019-03-01T19:53:25.551Z,6.30
2019-03-01T19:55:58.705Z,6.30
2019-03-01T19:58:29.221Z,6.30
2019-03-01T20:00:59.685Z,6.30
2019-03-01T20:03:30.502Z,6.30
2019-03-01T20:06:01.018Z,6.30
2019-03-01T20:08:31.479Z,6.30
2019-03-01T20:11:01.954Z,6.30
2019-03-01T20:13:32.682Z,6.30
2019-03-01T20:16:03.133Z,6.30
2019-03-01T20:18:34.035Z,6.30
2019-03-01T20:21:05.865Z,6.30
2019-03-01T20:23:37.994Z,6.30
2019-03-01T20:26:08.119Z,6.30
2019-03-01T20:28:38.726Z,6.40
2019-03-01T20:31:09.336Z,6.30
2019-03-01T20:33:39.778Z,6.40
2019-03-01T20:36:10.244Z,6.40
2019-03-01T20:38:40.963Z,6.40
2019-03-01T20:41:12.292Z,6.40
2019-03-01T20:43:43.012Z,6.40
2019-03-01T20:46:13.454Z,6.40
2019-03-01T20:48:43.895Z,6.40
2019-03-01T20:51:14.451Z,6.40
2019-03-01T20:53:45.747Z,6.40
2019-03-01T20:56:17.249Z,6.40
2019-03-01T20:58:50.695Z,6.50
2019-03-01T21:01:21.163Z,6.40
2019-03-01T21:03:51.684Z,6.50
2019-03-01T21:06:22.116Z,6.50
2019-03-01T21:08:52.598Z,6.40
2019-03-01T21:11:25.422Z,6.50
2019-03-01T21:13:56.441Z,6.50
2019-03-01T21:16:26.972Z,6.40
2019-03-01T21:18:59.933Z,6.40
2019-03-01T21:21:30.440Z,6.50
2019-03-01T21:24:00.892Z,6.40
2019-03-01T21:26:31.392Z,6.40
2019-03-01T21:29:01.866Z,6.40
2019-03-01T21:31:35.371Z,6.40
2019-03-01T21:34:04.579Z,6.40
2019-03-01T21:36:35.065Z,6.40
2019-03-01T21:39:06.259Z,6.40
2019-03-01T21:41:36.791Z,6.40
2019-03-01T21:44:10.226Z,6.40
2019-03-01T21:46:39.492Z,6.40
2019-03-01T21:49:09.978Z,6.40
2019-03-01T21:51:40.463Z,6.40
2019-03-01T21:54:12.650Z,6.40
2019-03-01T21:56:55.399Z,6.40
2019-03-01T21:59:17.279Z,6.40
2019-03-01T22:01:47.571Z,6.40
2019-03-01T22:04:18.010Z,6.40
2019-03-01T22:06:48.530Z,6.40
2019-03-01T22:09:20.644Z,6.40
2019-03-01T22:11:51.357Z,6.40
2019-03-01T22:14:21.818Z,6.40
2019-03-01T22:16:52.290Z,6.40
2019-03-01T22:19:22.753Z,6.40
2019-03-01T22:21:54.682Z,6.40
2019-03-01T22:24:27.346Z,6.40
2019-03-01T22:27:00.336Z,6.30
2019-03-01T22:29:30.779Z,6.30
2019-03-01T22:32:01.263Z,6.30
2019-03-01T22:34:32.151Z,6.30
2019-03-01T22:37:02.644Z,6.30
2019-03-01T22:39:33.094Z,6.30
2019-03-01T22:42:03.696Z,6.30
2019-03-01T22:44:36.514Z,6.30
2019-03-01T22:47:06.382Z,6.30
2019-03-01T22:49:37.114Z,6.30
2019-03-01T22:52:07.571Z,6.30
2019-03-01T22:54:38.078Z,6.30
2019-03-01T22:57:08.586Z,6.30
2019-03-01T22:59:39.051Z,6.30
2019-03-01T23:02:13.803Z,6.30
2019-03-01T23:04:44.336Z,6.30
2019-03-01T23:07:14.788Z,6.30
2019-03-01T23:09:46.537Z,6.30
2019-03-01T23:12:17.429Z,6.30
2019-03-01T23:14:47.889Z,6.30
2019-03-01T23:17:18.440Z,6.30
2019-03-01T23:19:51.689Z,6.30
2019-03-01T23:22:21.058Z,6.30
2019-03-01T23:24:51.486Z,6.30
2019-03-01T23:27:21.940Z,6.30
2019-03-01T23:29:54.352Z,6.30
2019-03-01T23:32:24.666Z,6.30
2019-03-01T23:34:55.127Z,6.30
2019-03-01T23:37:25.711Z,6.30
2019-03-01T23:39:57.098Z,6.30
2019-03-01T23:42:28.344Z,6.30
2019-03-01T23:44:58.914Z,6.30
2019-03-01T23:47:29.489Z,6.30
2019-03-01T23:50:00.589Z,6.30
2019-03-01T23:52:31.144Z,6.30
2019-03-01T23:55:01.641Z,6.30
2019-03-01T23:57:32.110Z,6.30
